sensor_id;sensor_type;location;lat;lon;timestamp;P1;durP1;ratioP1;P2;durP2;ratioP2
43803;SDS011;29430;52.924;-2.388;2023-10-09T00:02:11;4.05;;;1.85;;
43803;SDS011;29430;52.924;-2.388;2023-10-09T00:07:03;5.22;;;1.80;;
43803;SDS011;29430;52.924;-2.388;2023-10-09T00:11:59;6.13;;;2.65;;
43803;SDS011;29430;52.924;-2.388;2023-10-09T00:16:52;4.63;;;1.70;;
43803;SDS011;29430;52.924;-2.388;2023-10-09T00:21:55;4.43;;;2.10;;
43803;SDS011;29430;52.924;-2.388;2023-10-09T00:26:46;5.82;;;1.38;;
43803;SDS011;29430;52.924;-2.388;2023-10-09T00:31:39;4.05;;;1.58;;
43803;SDS011;29430;52.924;-2.388;2023-10-09T00:36:30;4.05;;;1.63;;
43803;SDS011;29430;52.924;-2.388;2023-10-09T00:41:24;5.00;;;2.05;;
43803;SDS011;29430;52.924;-2.388;2023-10-09T00:46:20;5.60;;;1.83;;
43803;SDS011;29430;52.924;-2.388;2023-10-09T00:51:13;6.28;;;1.80;;
43803;SDS011;29430;52.924;-2.388;2023-10-09T00:56:10;4.43;;;1.65;;
43803;SDS011;29430;52.924;-2.388;2023-10-09T01:01:20;3.88;;;1.48;;
43803;SDS011;29430;52.924;-2.388;2023-10-09T01:06:17;7.43;;;1.70;;
43803;SDS011;29430;52.924;-2.388;2023-10-09T01:11:13;5.18;;;1.92;;
43803;SDS011;29430;52.924;-2.388;2023-10-09T01:16:21;4.65;;;1.83;;
43803;SDS011;29430;52.924;-2.388;2023-10-09T01:21:15;5.30;;;1.80;;
43803;SDS011;29430;52.924;-2.388;2023-10-09T01:26:07;4.88;;;1.90;;
43803;SDS011;29430;52.924;-2.388;2023-10-09T01:30:59;4.72;;;1.50;;
43803;SDS011;29430;52.924;-2.388;2023-10-09T01:35:53;3.53;;;1.30;;
43803;SDS011;29430;52.924;-2.388;2023-10-09T01:40:50;4.17;;;1.60;;
43803;SDS011;29430;52.924;-2.388;2023-10-09T01:45:43;5.82;;;2.08;;
43803;SDS011;29430;52.924;-2.388;2023-10-09T01:50:38;5.22;;;2.35;;
43803;SDS011;29430;52.924;-2.388;2023-10-09T01:55:33;5.72;;;1.92;;
43803;SDS011;29430;52.924;-2.388;2023-10-09T02:00:26;6.68;;;2.28;;
43803;SDS011;29430;52.924;-2.388;2023-10-09T02:05:20;4.70;;;2.10;;
43803;SDS011;29430;52.924;-2.388;2023-10-09T02:10:13;3.95;;;1.90;;
43803;SDS011;29430;52.924;-2.388;2023-10-09T02:15:20;4.30;;;2.08;;
43803;SDS011;29430;52.924;-2.388;2023-10-09T02:20:31;4.55;;;1.80;;
43803;SDS011;29430;52.924;-2.388;2023-10-09T02:25:29;4.45;;;1.40;;
43803;SDS011;29430;52.924;-2.388;2023-10-09T02:30:25;2.33;;;0.90;;
43803;SDS011;29430;52.924;-2.388;2023-10-09T02:35:20;4.22;;;1.48;;
43803;SDS011;29430;52.924;-2.388;2023-10-09T02:40:19;6.25;;;2.17;;
43803;SDS011;29430;52.924;-2.388;2023-10-09T02:45:16;6.80;;;2.00;;
43803;SDS011;29430;52.924;-2.388;2023-10-09T02:50:11;3.35;;;1.50;;
43803;SDS011;29430;52.924;-2.388;2023-10-09T02:55:03;6.30;;;1.70;;
43803;SDS011;29430;52.924;-2.388;2023-10-09T02:59:59;5.60;;;1.67;;
43803;SDS011;29430;52.924;-2.388;2023-10-09T03:04:51;3.60;;;1.70;;
43803;SDS011;29430;52.924;-2.388;2023-10-09T03:09:46;4.07;;;1.85;;
43803;SDS011;29430;52.924;-2.388;2023-10-09T03:14:40;6.85;;;2.70;;
43803;SDS011;29430;52.924;-2.388;2023-10-09T03:19:33;3.58;;;1.38;;
43803;SDS011;29430;52.924;-2.388;2023-10-09T03:24:29;5.15;;;1.70;;
43803;SDS011;29430;52.924;-2.388;2023-10-09T03:29:22;5.82;;;1.80;;
43803;SDS011;29430;52.924;-2.388;2023-10-09T03:34:15;4.72;;;1.75;;
43803;SDS011;29430;52.924;-2.388;2023-10-09T03:39:06;6.13;;;2.70;;
43803;SDS011;29430;52.924;-2.388;2023-10-09T03:44:17;5.53;;;1.95;;
43803;SDS011;29430;52.924;-2.388;2023-10-09T03:49:11;5.10;;;1.77;;
43803;SDS011;29430;52.924;-2.388;2023-10-09T03:54:04;5.55;;;2.08;;
43803;SDS011;29430;52.924;-2.388;2023-10-09T03:59:00;4.93;;;2.35;;
43803;SDS011;29430;52.924;-2.388;2023-10-09T04:03:56;5.13;;;2.40;;
43803;SDS011;29430;52.924;-2.388;2023-10-09T04:08:52;6.43;;;2.08;;
43803;SDS011;29430;52.924;-2.388;2023-10-09T04:13:44;5.45;;;1.88;;
43803;SDS011;29430;52.924;-2.388;2023-10-09T04:18:40;4.05;;;1.70;;
43803;SDS011;29430;52.924;-2.388;2023-10-09T04:23:36;7.13;;;2.63;;
43803;SDS011;29430;52.924;-2.388;2023-10-09T04:28:48;8.25;;;3.20;;
43803;SDS011;29430;52.924;-2.388;2023-10-09T04:33:43;5.13;;;2.00;;
43803;SDS011;29430;52.924;-2.388;2023-10-09T04:38:48;5.93;;;2.30;;
43803;SDS011;29430;52.924;-2.388;2023-10-09T04:43:56;4.95;;;2.28;;
43803;SDS011;29430;52.924;-2.388;2023-10-09T04:49:06;5.82;;;3.50;;
43803;SDS011;29430;52.924;-2.388;2023-10-09T04:54:17;6.60;;;3.30;;
43803;SDS011;29430;52.924;-2.388;2023-10-09T04:59:24;5.20;;;2.35;;
43803;SDS011;29430;52.924;-2.388;2023-10-09T05:04:16;11.40;;;3.53;;
43803;SDS011;29430;52.924;-2.388;2023-10-09T05:09:46;5.82;;;2.42;;
43803;SDS011;29430;52.924;-2.388;2023-10-09T05:14:47;7.03;;;3.58;;
43803;SDS011;29430;52.924;-2.388;2023-10-09T05:19:58;6.65;;;2.85;;
43803;SDS011;29430;52.924;-2.388;2023-10-09T05:25:10;6.95;;;2.72;;
43803;SDS011;29430;52.924;-2.388;2023-10-09T05:30:07;5.75;;;2.78;;
43803;SDS011;29430;52.924;-2.388;2023-10-09T05:35:18;6.18;;;3.67;;
43803;SDS011;29430;52.924;-2.388;2023-10-09T05:40:21;6.88;;;4.40;;
43803;SDS011;29430;52.924;-2.388;2023-10-09T05:45:22;9.00;;;3.75;;
43803;SDS011;29430;52.924;-2.388;2023-10-09T05:50:32;7.40;;;3.78;;
43803;SDS011;29430;52.924;-2.388;2023-10-09T05:55:24;5.65;;;3.70;;
43803;SDS011;29430;52.924;-2.388;2023-10-09T06:00:17;7.90;;;3.97;;
43803;SDS011;29430;52.924;-2.388;2023-10-09T06:05:27;10.60;;;5.28;;
43803;SDS011;29430;52.924;-2.388;2023-10-09T06:10:42;7.47;;;3.72;;
43803;SDS011;29430;52.924;-2.388;2023-10-09T06:15:37;5.70;;;3.60;;
43803;SDS011;29430;52.924;-2.388;2023-10-09T06:20:41;7.85;;;4.30;;
43803;SDS011;29430;52.924;-2.388;2023-10-09T06:25:52;8.20;;;4.03;;
43803;SDS011;29430;52.924;-2.388;2023-10-09T06:30:43;7.00;;;4.43;;
43803;SDS011;29430;52.924;-2.388;2023-10-09T06:35:38;8.23;;;4.93;;
43803;SDS011;29430;52.924;-2.388;2023-10-09T06:40:32;7.00;;;4.03;;
43803;SDS011;29430;52.924;-2.388;2023-10-09T06:45:28;11.18;;;5.38;;
43803;SDS011;29430;52.924;-2.388;2023-10-09T06:50:35;7.90;;;5.13;;
43803;SDS011;29430;52.924;-2.388;2023-10-09T06:55:45;12.55;;;5.78;;
43803;SDS011;29430;52.924;-2.388;2023-10-09T07:00:41;12.00;;;6.75;;
43803;SDS011;29430;52.924;-2.388;2023-10-09T07:06:06;10.20;;;6.63;;
43803;SDS011;29430;52.924;-2.388;2023-10-09T07:11:16;9.02;;;5.95;;
43803;SDS011;29430;52.924;-2.388;2023-10-09T07:16:34;10.68;;;6.38;;
43803;SDS011;29430;52.924;-2.388;2023-10-09T07:21:48;9.02;;;5.90;;
43803;SDS011;29430;52.924;-2.388;2023-10-09T07:26:45;8.68;;;6.05;;
43803;SDS011;29430;52.924;-2.388;2023-10-09T07:31:44;9.30;;;5.15;;
43803;SDS011;29430;52.924;-2.388;2023-10-09T07:36:39;10.93;;;5.95;;
43803;SDS011;29430;52.924;-2.388;2023-10-09T07:41:40;9.40;;;6.38;;
43803;SDS011;29430;52.924;-2.388;2023-10-09T07:46:36;7.50;;;4.93;;
43803;SDS011;29430;52.924;-2.388;2023-10-09T07:51:43;8.65;;;5.15;;
43803;SDS011;29430;52.924;-2.388;2023-10-09T07:56:39;10.63;;;6.25;;
43803;SDS011;29430;52.924;-2.388;2023-10-09T08:06:43;8.75;;;5.50;;
43803;SDS011;29430;52.924;-2.388;2023-10-09T08:11:55;8.23;;;5.97;;
43803;SDS011;29430;52.924;-2.388;2023-10-09T08:17:16;10.48;;;6.45;;
43803;SDS011;29430;52.924;-2.388;2023-10-09T08:22:12;11.93;;;6.78;;
43803;SDS011;29430;52.924;-2.388;2023-10-09T08:27:16;8.30;;;5.63;;
43803;SDS011;29430;52.924;-2.388;2023-10-09T08:32:22;9.60;;;5.72;;
43803;SDS011;29430;52.924;-2.388;2023-10-09T08:37:33;14.18;;;6.20;;
43803;SDS011;29430;52.924;-2.388;2023-10-09T08:42:24;10.88;;;6.30;;
43803;SDS011;29430;52.924;-2.388;2023-10-09T08:47:17;13.43;;;7.20;;
43803;SDS011;29430;52.924;-2.388;2023-10-09T08:52:09;9.57;;;5.88;;
43803;SDS011;29430;52.924;-2.388;2023-10-09T08:57:02;12.63;;;6.28;;
43803;SDS011;29430;52.924;-2.388;2023-10-09T09:01:53;9.82;;;5.80;;
43803;SDS011;29430;52.924;-2.388;2023-10-09T09:06:49;7.47;;;4.53;;
43803;SDS011;29430;52.924;-2.388;2023-10-09T09:11:41;14.82;;;7.40;;
43803;SDS011;29430;52.924;-2.388;2023-10-09T09:16:44;13.25;;;7.50;;
43803;SDS011;29430;52.924;-2.388;2023-10-09T09:21:41;16.50;;;10.27;;
43803;SDS011;29430;52.924;-2.388;2023-10-09T09:26:37;15.27;;;8.98;;
43803;SDS011;29430;52.924;-2.388;2023-10-09T09:31:36;13.50;;;7.47;;
43803;SDS011;29430;52.924;-2.388;2023-10-09T09:36:33;13.13;;;7.60;;
43803;SDS011;29430;52.924;-2.388;2023-10-09T09:41:25;12.00;;;6.75;;
43803;SDS011;29430;52.924;-2.388;2023-10-09T09:46:18;15.05;;;8.10;;
43803;SDS011;29430;52.924;-2.388;2023-10-09T09:51:10;13.02;;;7.75;;
43803;SDS011;29430;52.924;-2.388;2023-10-09T09:56:05;8.15;;;5.38;;
43803;SDS011;29430;52.924;-2.388;2023-10-09T10:01:01;9.73;;;5.35;;
43803;SDS011;29430;52.924;-2.388;2023-10-09T10:06:14;11.02;;;5.07;;
43803;SDS011;29430;52.924;-2.388;2023-10-09T10:11:40;8.95;;;5.32;;
43803;SDS011;29430;52.924;-2.388;2023-10-09T10:17:01;9.32;;;4.72;;
43803;SDS011;29430;52.924;-2.388;2023-10-09T10:22:23;7.20;;;3.15;;
43803;SDS011;29430;52.924;-2.388;2023-10-09T10:27:19;13.57;;;3.22;;
43803;SDS011;29430;52.924;-2.388;2023-10-09T10:32:15;8.67;;;3.07;;
43803;SDS011;29430;52.924;-2.388;2023-10-09T10:37:14;8.63;;;2.72;;
43803;SDS011;29430;52.924;-2.388;2023-10-09T10:42:06;5.80;;;3.00;;
43803;SDS011;29430;52.924;-2.388;2023-10-09T10:47:00;7.20;;;3.15;;
43803;SDS011;29430;52.924;-2.388;2023-10-09T10:51:52;7.82;;;5.53;;
43803;SDS011;29430;52.924;-2.388;2023-10-09T10:57:19;9.02;;;5.72;;
43803;SDS011;29430;52.924;-2.388;2023-10-09T11:02:20;9.52;;;6.47;;
43803;SDS011;29430;52.924;-2.388;2023-10-09T11:07:21;11.00;;;7.50;;
43803;SDS011;29430;52.924;-2.388;2023-10-09T11:12:16;7.73;;;3.67;;
43803;SDS011;29430;52.924;-2.388;2023-10-09T11:17:17;10.57;;;3.30;;
43803;SDS011;29430;52.924;-2.388;2023-10-09T11:22:16;4.90;;;2.38;;
43803;SDS011;29430;52.924;-2.388;2023-10-09T11:27:20;8.25;;;2.53;;
43803;SDS011;29430;52.924;-2.388;2023-10-09T11:37:13;7.95;;;2.25;;
43803;SDS011;29430;52.924;-2.388;2023-10-09T11:42:24;5.35;;;1.55;;
43803;SDS011;29430;52.924;-2.388;2023-10-09T11:47:39;6.37;;;2.00;;
43803;SDS011;29430;52.924;-2.388;2023-10-09T11:52:55;7.25;;;2.47;;
43803;SDS011;29430;52.924;-2.388;2023-10-09T11:58:00;6.75;;;2.30;;
43803;SDS011;29430;52.924;-2.388;2023-10-09T12:02:53;6.07;;;2.40;;
43803;SDS011;29430;52.924;-2.388;2023-10-09T12:07:45;4.55;;;2.03;;
43803;SDS011;29430;52.924;-2.388;2023-10-09T12:12:37;5.00;;;2.42;;
43803;SDS011;29430;52.924;-2.388;2023-10-09T12:17:31;7.00;;;2.25;;
43803;SDS011;29430;52.924;-2.388;2023-10-09T12:22:22;6.07;;;2.55;;
43803;SDS011;29430;52.924;-2.388;2023-10-09T12:27:18;7.13;;;2.83;;
43803;SDS011;29430;52.924;-2.388;2023-10-09T12:32:11;3.58;;;1.92;;
43803;SDS011;29430;52.924;-2.388;2023-10-09T12:37:03;9.25;;;2.90;;
43803;SDS011;29430;52.924;-2.388;2023-10-09T12:41:56;6.68;;;2.58;;
43803;SDS011;29430;52.924;-2.388;2023-10-09T12:46:50;8.65;;;2.33;;
43803;SDS011;29430;52.924;-2.388;2023-10-09T12:51:44;6.95;;;2.30;;
43803;SDS011;29430;52.924;-2.388;2023-10-09T12:56:37;8.38;;;2.53;;
43803;SDS011;29430;52.924;-2.388;2023-10-09T13:01:29;4.38;;;1.67;;
43803;SDS011;29430;52.924;-2.388;2023-10-09T13:06:23;7.18;;;2.70;;
43803;SDS011;29430;52.924;-2.388;2023-10-09T13:11:16;5.55;;;2.65;;
43803;SDS011;29430;52.924;-2.388;2023-10-09T13:16:11;8.32;;;2.88;;
43803;SDS011;29430;52.924;-2.388;2023-10-09T13:21:26;10.65;;;2.72;;
43803;SDS011;29430;52.924;-2.388;2023-10-09T13:26:23;5.25;;;2.28;;
43803;SDS011;29430;52.924;-2.388;2023-10-09T13:31:24;11.05;;;2.10;;
43803;SDS011;29430;52.924;-2.388;2023-10-09T13:36:17;5.40;;;2.17;;
43803;SDS011;29430;52.924;-2.388;2023-10-09T13:41:18;9.70;;;2.83;;
43803;SDS011;29430;52.924;-2.388;2023-10-09T13:46:10;8.25;;;1.92;;
43803;SDS011;29430;52.924;-2.388;2023-10-09T13:51:09;5.13;;;2.33;;
43803;SDS011;29430;52.924;-2.388;2023-10-09T13:56:05;8.17;;;2.83;;
43803;SDS011;29430;52.924;-2.388;2023-10-09T14:01:07;8.20;;;2.42;;
43803;SDS011;29430;52.924;-2.388;2023-10-09T14:05:59;7.65;;;2.63;;
43803;SDS011;29430;52.924;-2.388;2023-10-09T14:11:01;8.05;;;2.50;;
43803;SDS011;29430;52.924;-2.388;2023-10-09T14:15:56;7.68;;;3.20;;
43803;SDS011;29430;52.924;-2.388;2023-10-09T14:20:51;11.03;;;3.37;;
43803;SDS011;29430;52.924;-2.388;2023-10-09T14:25:47;8.87;;;3.63;;
43803;SDS011;29430;52.924;-2.388;2023-10-09T14:30:41;7.70;;;2.75;;
43803;SDS011;29430;52.924;-2.388;2023-10-09T14:35:36;6.35;;;2.92;;
43803;SDS011;29430;52.924;-2.388;2023-10-09T14:40:30;8.13;;;3.63;;
43803;SDS011;29430;52.924;-2.388;2023-10-09T14:45:26;10.93;;;3.50;;
43803;SDS011;29430;52.924;-2.388;2023-10-09T14:50:18;6.93;;;2.90;;
43803;SDS011;29430;52.924;-2.388;2023-10-09T14:55:13;5.53;;;2.92;;
43803;SDS011;29430;52.924;-2.388;2023-10-09T15:00:05;6.80;;;2.90;;
43803;SDS011;29430;52.924;-2.388;2023-10-09T15:05:07;9.88;;;4.03;;
43803;SDS011;29430;52.924;-2.388;2023-10-09T15:10:04;4.95;;;2.28;;
43803;SDS011;29430;52.924;-2.388;2023-10-09T15:14:56;8.45;;;3.92;;
43803;SDS011;29430;52.924;-2.388;2023-10-09T15:19:48;9.02;;;3.17;;
43803;SDS011;29430;52.924;-2.388;2023-10-09T15:24:46;5.28;;;1.90;;
43803;SDS011;29430;52.924;-2.388;2023-10-09T15:29:37;10.70;;;3.75;;
43803;SDS011;29430;52.924;-2.388;2023-10-09T15:34:34;8.95;;;3.72;;
43803;SDS011;29430;52.924;-2.388;2023-10-09T15:39:26;6.95;;;3.40;;
43803;SDS011;29430;52.924;-2.388;2023-10-09T15:44:18;6.93;;;2.83;;
43803;SDS011;29430;52.924;-2.388;2023-10-09T15:49:13;10.82;;;3.75;;
43803;SDS011;29430;52.924;-2.388;2023-10-09T15:54:08;9.93;;;4.60;;
43803;SDS011;29430;52.924;-2.388;2023-10-09T15:59:02;8.68;;;4.57;;
43803;SDS011;29430;52.924;-2.388;2023-10-09T16:03:56;8.60;;;4.28;;
43803;SDS011;29430;52.924;-2.388;2023-10-09T16:08:48;13.23;;;5.60;;
43803;SDS011;29430;52.924;-2.388;2023-10-09T16:13:41;9.73;;;4.35;;
43803;SDS011;29430;52.924;-2.388;2023-10-09T16:18:36;8.20;;;4.38;;
43803;SDS011;29430;52.924;-2.388;2023-10-09T16:23:30;9.98;;;4.47;;
43803;SDS011;29430;52.924;-2.388;2023-10-09T16:28:25;11.88;;;4.35;;
43803;SDS011;29430;52.924;-2.388;2023-10-09T16:33:18;10.15;;;4.00;;
43803;SDS011;29430;52.924;-2.388;2023-10-09T16:38:10;11.90;;;4.72;;
43803;SDS011;29430;52.924;-2.388;2023-10-09T16:43:05;11.55;;;3.83;;
43803;SDS011;29430;52.924;-2.388;2023-10-09T16:47:57;9.27;;;3.90;;
43803;SDS011;29430;52.924;-2.388;2023-10-09T16:52:50;12.35;;;4.63;;
43803;SDS011;29430;52.924;-2.388;2023-10-09T16:57:43;9.73;;;3.33;;
43803;SDS011;29430;52.924;-2.388;2023-10-09T17:02:38;6.80;;;3.28;;
43803;SDS011;29430;52.924;-2.388;2023-10-09T17:07:31;8.60;;;4.03;;
43803;SDS011;29430;52.924;-2.388;2023-10-09T17:12:25;13.05;;;4.05;;
43803;SDS011;29430;52.924;-2.388;2023-10-09T17:17:19;7.65;;;3.50;;
43803;SDS011;29430;52.924;-2.388;2023-10-09T17:22:12;9.68;;;4.40;;
43803;SDS011;29430;52.924;-2.388;2023-10-09T17:27:04;9.38;;;5.00;;
43803;SDS011;29430;52.924;-2.388;2023-10-09T17:32:00;10.55;;;4.75;;
43803;SDS011;29430;52.924;-2.388;2023-10-09T17:36:52;11.20;;;5.35;;
43803;SDS011;29430;52.924;-2.388;2023-10-09T17:41:44;14.45;;;5.35;;
43803;SDS011;29430;52.924;-2.388;2023-10-09T17:46:35;14.68;;;6.38;;
43803;SDS011;29430;52.924;-2.388;2023-10-09T17:51:28;10.02;;;4.25;;
43803;SDS011;29430;52.924;-2.388;2023-10-09T17:56:19;16.15;;;7.30;;
43803;SDS011;29430;52.924;-2.388;2023-10-09T18:01:16;11.93;;;7.15;;
43803;SDS011;29430;52.924;-2.388;2023-10-09T18:06:10;16.60;;;8.55;;
43803;SDS011;29430;52.924;-2.388;2023-10-09T18:11:04;17.33;;;8.43;;
43803;SDS011;29430;52.924;-2.388;2023-10-09T18:16:01;15.02;;;7.00;;
43803;SDS011;29430;52.924;-2.388;2023-10-09T18:21:12;11.73;;;5.63;;
43803;SDS011;29430;52.924;-2.388;2023-10-09T18:26:04;11.40;;;5.53;;
43803;SDS011;29430;52.924;-2.388;2023-10-09T18:30:57;15.18;;;4.25;;
43803;SDS011;29430;52.924;-2.388;2023-10-09T18:35:49;13.02;;;5.45;;
43803;SDS011;29430;52.924;-2.388;2023-10-09T18:40:44;8.05;;;4.00;;
43803;SDS011;29430;52.924;-2.388;2023-10-09T18:50:30;11.50;;;3.15;;
43803;SDS011;29430;52.924;-2.388;2023-10-09T18:55:22;7.25;;;2.85;;
43803;SDS011;29430;52.924;-2.388;2023-10-09T19:00:13;8.50;;;3.63;;
43803;SDS011;29430;52.924;-2.388;2023-10-09T19:05:12;8.00;;;3.05;;
43803;SDS011;29430;52.924;-2.388;2023-10-09T19:10:04;7.38;;;2.53;;
43803;SDS011;29430;52.924;-2.388;2023-10-09T19:14:59;8.07;;;3.55;;
43803;SDS011;29430;52.924;-2.388;2023-10-09T19:19:51;7.60;;;3.30;;
43803;SDS011;29430;52.924;-2.388;2023-10-09T19:24:43;15.45;;;4.60;;
43803;SDS011;29430;52.924;-2.388;2023-10-09T19:29:34;9.05;;;3.08;;
43803;SDS011;29430;52.924;-2.388;2023-10-09T19:34:26;6.18;;;2.70;;
43803;SDS011;29430;52.924;-2.388;2023-10-09T19:39:18;7.32;;;3.28;;
43803;SDS011;29430;52.924;-2.388;2023-10-09T19:44:09;8.40;;;2.80;;
43803;SDS011;29430;52.924;-2.388;2023-10-09T19:49:02;10.20;;;3.60;;
43803;SDS011;29430;52.924;-2.388;2023-10-09T19:53:54;10.25;;;4.57;;
43803;SDS011;29430;52.924;-2.388;2023-10-09T19:58:45;7.05;;;3.30;;
43803;SDS011;29430;52.924;-2.388;2023-10-09T20:03:37;8.00;;;3.38;;
43803;SDS011;29430;52.924;-2.388;2023-10-09T20:08:33;5.30;;;3.33;;
43803;SDS011;29430;52.924;-2.388;2023-10-09T20:13:25;6.18;;;3.92;;
43803;SDS011;29430;52.924;-2.388;2023-10-09T20:18:17;9.25;;;3.90;;
43803;SDS011;29430;52.924;-2.388;2023-10-09T20:23:11;7.75;;;3.67;;
43803;SDS011;29430;52.924;-2.388;2023-10-09T20:28:07;7.63;;;3.58;;
43803;SDS011;29430;52.924;-2.388;2023-10-09T20:33:01;13.90;;;5.05;;
43803;SDS011;29430;52.924;-2.388;2023-10-09T20:37:56;6.90;;;3.60;;
43803;SDS011;29430;52.924;-2.388;2023-10-09T20:42:53;7.35;;;3.35;;
43803;SDS011;29430;52.924;-2.388;2023-10-09T20:47:45;9.98;;;3.75;;
43803;SDS011;29430;52.924;-2.388;2023-10-09T20:52:38;6.95;;;3.45;;
43803;SDS011;29430;52.924;-2.388;2023-10-09T20:57:29;10.38;;;4.13;;
43803;SDS011;29430;52.924;-2.388;2023-10-09T21:02:21;8.55;;;3.78;;
43803;SDS011;29430;52.924;-2.388;2023-10-09T21:07:12;9.07;;;4.25;;
43803;SDS011;29430;52.924;-2.388;2023-10-09T21:12:04;9.98;;;4.13;;
43803;SDS011;29430;52.924;-2.388;2023-10-09T21:16:56;8.75;;;3.55;;
43803;SDS011;29430;52.924;-2.388;2023-10-09T21:21:48;7.22;;;3.88;;
43803;SDS011;29430;52.924;-2.388;2023-10-09T21:26:40;7.28;;;3.20;;
43803;SDS011;29430;52.924;-2.388;2023-10-09T21:31:32;7.65;;;3.75;;
43803;SDS011;29430;52.924;-2.388;2023-10-09T21:36:25;8.35;;;3.38;;
43803;SDS011;29430;52.924;-2.388;2023-10-09T21:41:17;11.02;;;4.05;;
43803;SDS011;29430;52.924;-2.388;2023-10-09T21:46:11;10.25;;;4.13;;
43803;SDS011;29430;52.924;-2.388;2023-10-09T21:51:05;9.02;;;4.38;;
43803;SDS011;29430;52.924;-2.388;2023-10-09T21:56:05;10.10;;;4.68;;
43803;SDS011;29430;52.924;-2.388;2023-10-09T22:00:58;14.45;;;5.00;;
43803;SDS011;29430;52.924;-2.388;2023-10-09T22:05:52;9.10;;;5.05;;
43803;SDS011;29430;52.924;-2.388;2023-10-09T22:10:47;14.68;;;5.22;;
43803;SDS011;29430;52.924;-2.388;2023-10-09T22:15:42;8.48;;;4.80;;
43803;SDS011;29430;52.924;-2.388;2023-10-09T22:20:35;10.93;;;5.00;;
43803;SDS011;29430;52.924;-2.388;2023-10-09T22:25:26;10.00;;;5.10;;
43803;SDS011;29430;52.924;-2.388;2023-10-09T22:30:21;9.52;;;4.03;;
43803;SDS011;29430;52.924;-2.388;2023-10-09T22:35:25;7.53;;;4.25;;
43803;SDS011;29430;52.924;-2.388;2023-10-09T22:40:21;12.95;;;5.30;;
43803;SDS011;29430;52.924;-2.388;2023-10-09T22:45:17;10.32;;;6.47;;
43803;SDS011;29430;52.924;-2.388;2023-10-09T22:50:21;9.38;;;5.47;;
43803;SDS011;29430;52.924;-2.388;2023-10-09T22:55:18;9.00;;;5.22;;
43803;SDS011;29430;52.924;-2.388;2023-10-09T23:00:11;10.98;;;5.10;;
43803;SDS011;29430;52.924;-2.388;2023-10-09T23:05:24;8.25;;;4.65;;
43803;SDS011;29430;52.924;-2.388;2023-10-09T23:10:22;8.15;;;4.57;;
43803;SDS011;29430;52.924;-2.388;2023-10-09T23:15:16;12.25;;;4.43;;
43803;SDS011;29430;52.924;-2.388;2023-10-09T23:20:24;8.98;;;4.20;;
43803;SDS011;29430;52.924;-2.388;2023-10-09T23:25:16;8.63;;;4.78;;
43803;SDS011;29430;52.924;-2.388;2023-10-09T23:30:21;7.45;;;3.97;;
43803;SDS011;29430;52.924;-2.388;2023-10-09T23:35:16;8.85;;;4.07;;
43803;SDS011;29430;52.924;-2.388;2023-10-09T23:40:11;6.18;;;3.25;;
43803;SDS011;29430;52.924;-2.388;2023-10-09T23:45:13;5.65;;;3.08;;
43803;SDS011;29430;52.924;-2.388;2023-10-09T23:50:11;5.93;;;3.00;;
43803;SDS011;29430;52.924;-2.388;2023-10-09T23:55:07;6.80;;;3.58;;
